sensor_id;sensor_type;location;lat;lon;timestamp;P1;durP1;ratioP1;P2;durP2;ratioP2
50393;SDS011;36308;46.312;25.288;2022-08-21T00:01:41;11.82;;;7.43;;
50393;SDS011;36308;46.312;25.288;2022-08-21T00:04:08;12.43;;;7.93;;
50393;SDS011;36308;46.312;25.288;2022-08-21T00:06:34;12.48;;;8.23;;
50393;SDS011;36308;46.312;25.288;2022-08-21T00:09:01;12.45;;;8.32;;
50393;SDS011;36308;46.312;25.288;2022-08-21T00:11:28;11.07;;;7.80;;
50393;SDS011;36308;46.312;25.288;2022-08-21T00:13:54;16.77;;;8.27;;
50393;SDS011;36308;46.312;25.288;2022-08-21T00:16:20;15.60;;;7.78;;
50393;SDS011;36308;46.312;25.288;2022-08-21T00:18:45;10.98;;;7.93;;
50393;SDS011;36308;46.312;25.288;2022-08-21T00:21:11;14.13;;;7.78;;
50393;SDS011;36308;46.312;25.288;2022-08-21T00:23:38;15.43;;;7.95;;
50393;SDS011;36308;46.312;25.288;2022-08-21T00:26:05;16.33;;;8.20;;
50393;SDS011;36308;46.312;25.288;2022-08-21T00:28:31;12.45;;;8.05;;
50393;SDS011;36308;46.312;25.288;2022-08-21T00:30:56;11.40;;;7.63;;
50393;SDS011;36308;46.312;25.288;2022-08-21T00:33:23;12.27;;;8.20;;
50393;SDS011;36308;46.312;25.288;2022-08-21T00:35:49;16.05;;;7.60;;
50393;SDS011;36308;46.312;25.288;2022-08-21T00:38:14;11.65;;;7.38;;
50393;SDS011;36308;46.312;25.288;2022-08-21T00:40:51;13.35;;;7.25;;
50393;SDS011;36308;46.312;25.288;2022-08-21T00:43:26;11.35;;;8.10;;
50393;SDS011;36308;46.312;25.288;2022-08-21T00:45:53;15.18;;;8.50;;
50393;SDS011;36308;46.312;25.288;2022-08-21T00:48:20;18.33;;;7.13;;
50393;SDS011;36308;46.312;25.288;2022-08-21T00:50:48;9.98;;;7.50;;
50393;SDS011;36308;46.312;25.288;2022-08-21T00:53:19;13.25;;;7.65;;
50393;SDS011;36308;46.312;25.288;2022-08-21T00:55:44;8.98;;;6.72;;
50393;SDS011;36308;46.312;25.288;2022-08-21T00:58:11;12.77;;;7.63;;
50393;SDS011;36308;46.312;25.288;2022-08-21T01:00:40;14.30;;;7.57;;
50393;SDS011;36308;46.312;25.288;2022-08-21T01:03:13;11.65;;;7.40;;
50393;SDS011;36308;46.312;25.288;2022-08-21T01:05:41;12.50;;;7.45;;
50393;SDS011;36308;46.312;25.288;2022-08-21T01:08:07;15.13;;;8.35;;
50393;SDS011;36308;46.312;25.288;2022-08-21T01:10:35;21.58;;;8.18;;
50393;SDS011;36308;46.312;25.288;2022-08-21T01:13:02;12.00;;;7.97;;
50393;SDS011;36308;46.312;25.288;2022-08-21T01:15:32;9.43;;;7.50;;
50393;SDS011;36308;46.312;25.288;2022-08-21T01:18:01;14.02;;;7.45;;
50393;SDS011;36308;46.312;25.288;2022-08-21T01:20:29;10.50;;;7.47;;
50393;SDS011;36308;46.312;25.288;2022-08-21T01:22:55;12.80;;;8.02;;
50393;SDS011;36308;46.312;25.288;2022-08-21T01:25:20;12.82;;;7.82;;
50393;SDS011;36308;46.312;25.288;2022-08-21T01:27:46;14.45;;;8.50;;
50393;SDS011;36308;46.312;25.288;2022-08-21T01:30:14;15.88;;;8.15;;
50393;SDS011;36308;46.312;25.288;2022-08-21T01:32:47;13.85;;;8.65;;
50393;SDS011;36308;46.312;25.288;2022-08-21T01:35:14;15.38;;;8.50;;
50393;SDS011;36308;46.312;25.288;2022-08-21T01:37:41;17.20;;;8.48;;
50393;SDS011;36308;46.312;25.288;2022-08-21T01:40:08;14.43;;;8.20;;
50393;SDS011;36308;46.312;25.288;2022-08-21T01:42:35;14.85;;;8.45;;
50393;SDS011;36308;46.312;25.288;2022-08-21T01:45:00;14.88;;;8.77;;
50393;SDS011;36308;46.312;25.288;2022-08-21T01:47:26;13.50;;;8.82;;
50393;SDS011;36308;46.312;25.288;2022-08-21T01:49:51;12.45;;;8.27;;
50393;SDS011;36308;46.312;25.288;2022-08-21T01:52:17;12.57;;;8.50;;
50393;SDS011;36308;46.312;25.288;2022-08-21T01:54:44;10.68;;;8.00;;
50393;SDS011;36308;46.312;25.288;2022-08-21T01:57:10;11.18;;;8.10;;
50393;SDS011;36308;46.312;25.288;2022-08-21T01:59:37;12.23;;;8.52;;
50393;SDS011;36308;46.312;25.288;2022-08-21T02:02:03;11.48;;;8.50;;
50393;SDS011;36308;46.312;25.288;2022-08-21T02:04:29;12.68;;;8.38;;
50393;SDS011;36308;46.312;25.288;2022-08-21T02:06:55;12.10;;;8.30;;
50393;SDS011;36308;46.312;25.288;2022-08-21T02:09:21;13.55;;;8.25;;
50393;SDS011;36308;46.312;25.288;2022-08-21T02:11:47;12.38;;;8.82;;
50393;SDS011;36308;46.312;25.288;2022-08-21T02:14:13;14.43;;;8.82;;
50393;SDS011;36308;46.312;25.288;2022-08-21T02:16:40;12.35;;;8.82;;
50393;SDS011;36308;46.312;25.288;2022-08-21T02:19:07;11.57;;;8.63;;
50393;SDS011;36308;46.312;25.288;2022-08-21T02:21:33;11.43;;;8.55;;
50393;SDS011;36308;46.312;25.288;2022-08-21T02:23:59;15.02;;;9.20;;
50393;SDS011;36308;46.312;25.288;2022-08-21T02:26:25;13.27;;;8.77;;
50393;SDS011;36308;46.312;25.288;2022-08-21T02:28:50;16.48;;;8.73;;
50393;SDS011;36308;46.312;25.288;2022-08-21T02:31:16;17.02;;;8.93;;
50393;SDS011;36308;46.312;25.288;2022-08-21T02:33:42;12.40;;;7.90;;
50393;SDS011;36308;46.312;25.288;2022-08-21T02:36:08;13.05;;;8.30;;
50393;SDS011;36308;46.312;25.288;2022-08-21T02:38:35;12.82;;;8.05;;
50393;SDS011;36308;46.312;25.288;2022-08-21T02:41:04;14.25;;;8.38;;
50393;SDS011;36308;46.312;25.288;2022-08-21T02:43:32;11.80;;;7.93;;
50393;SDS011;36308;46.312;25.288;2022-08-21T02:45:58;13.80;;;8.35;;
50393;SDS011;36308;46.312;25.288;2022-08-21T02:48:25;14.20;;;8.23;;
50393;SDS011;36308;46.312;25.288;2022-08-21T02:50:57;11.98;;;7.85;;
50393;SDS011;36308;46.312;25.288;2022-08-21T02:53:25;12.45;;;8.48;;
50393;SDS011;36308;46.312;25.288;2022-08-21T02:55:52;13.65;;;8.10;;
50393;SDS011;36308;46.312;25.288;2022-08-21T02:58:19;11.38;;;8.05;;
50393;SDS011;36308;46.312;25.288;2022-08-21T03:00:48;8.63;;;7.35;;
50393;SDS011;36308;46.312;25.288;2022-08-21T03:03:14;13.32;;;8.73;;
50393;SDS011;36308;46.312;25.288;2022-08-21T03:05:40;11.50;;;7.85;;
50393;SDS011;36308;46.312;25.288;2022-08-21T03:08:07;10.93;;;8.50;;
50393;SDS011;36308;46.312;25.288;2022-08-21T03:10:35;12.88;;;8.73;;
50393;SDS011;36308;46.312;25.288;2022-08-21T03:13:02;16.17;;;8.20;;
50393;SDS011;36308;46.312;25.288;2022-08-21T03:15:28;12.60;;;7.93;;
50393;SDS011;36308;46.312;25.288;2022-08-21T03:17:54;16.23;;;8.95;;
50393;SDS011;36308;46.312;25.288;2022-08-21T03:20:21;13.35;;;8.07;;
50393;SDS011;36308;46.312;25.288;2022-08-21T03:22:49;11.07;;;7.85;;
50393;SDS011;36308;46.312;25.288;2022-08-21T03:25:15;10.32;;;7.93;;
50393;SDS011;36308;46.312;25.288;2022-08-21T03:27:42;11.88;;;7.57;;
50393;SDS011;36308;46.312;25.288;2022-08-21T03:30:08;15.55;;;8.50;;
50393;SDS011;36308;46.312;25.288;2022-08-21T03:32:34;15.50;;;7.70;;
50393;SDS011;36308;46.312;25.288;2022-08-21T03:35:01;15.45;;;8.20;;
50393;SDS011;36308;46.312;25.288;2022-08-21T03:37:26;13.40;;;7.97;;
50393;SDS011;36308;46.312;25.288;2022-08-21T03:39:52;11.65;;;7.65;;
50393;SDS011;36308;46.312;25.288;2022-08-21T03:42:18;11.85;;;7.97;;
50393;SDS011;36308;46.312;25.288;2022-08-21T03:44:44;14.77;;;8.02;;
50393;SDS011;36308;46.312;25.288;2022-08-21T03:47:09;13.20;;;8.27;;
50393;SDS011;36308;46.312;25.288;2022-08-21T03:49:36;12.80;;;7.70;;
50393;SDS011;36308;46.312;25.288;2022-08-21T03:52:02;14.23;;;8.55;;
50393;SDS011;36308;46.312;25.288;2022-08-21T03:54:28;13.27;;;8.63;;
50393;SDS011;36308;46.312;25.288;2022-08-21T03:56:54;12.70;;;8.90;;
50393;SDS011;36308;46.312;25.288;2022-08-21T03:59:21;12.48;;;9.00;;
50393;SDS011;36308;46.312;25.288;2022-08-21T04:04:19;14.77;;;8.70;;
50393;SDS011;36308;46.312;25.288;2022-08-21T04:06:44;10.90;;;8.23;;
50393;SDS011;36308;46.312;25.288;2022-08-21T04:09:09;18.60;;;9.02;;
50393;SDS011;36308;46.312;25.288;2022-08-21T04:11:35;11.45;;;8.25;;
50393;SDS011;36308;46.312;25.288;2022-08-21T04:14:01;15.25;;;8.38;;
50393;SDS011;36308;46.312;25.288;2022-08-21T04:16:27;15.75;;;8.85;;
50393;SDS011;36308;46.312;25.288;2022-08-21T04:18:52;13.32;;;8.88;;
50393;SDS011;36308;46.312;25.288;2022-08-21T04:21:18;15.30;;;8.77;;
50393;SDS011;36308;46.312;25.288;2022-08-21T04:23:43;12.00;;;8.75;;
50393;SDS011;36308;46.312;25.288;2022-08-21T04:26:09;14.85;;;9.55;;
50393;SDS011;36308;46.312;25.288;2022-08-21T04:28:34;12.35;;;9.68;;
50393;SDS011;36308;46.312;25.288;2022-08-21T04:30:59;18.23;;;9.85;;
50393;SDS011;36308;46.312;25.288;2022-08-21T04:33:25;12.57;;;8.93;;
50393;SDS011;36308;46.312;25.288;2022-08-21T04:35:50;13.55;;;9.38;;
50393;SDS011;36308;46.312;25.288;2022-08-21T04:38:16;15.85;;;9.40;;
50393;SDS011;36308;46.312;25.288;2022-08-21T04:40:42;13.13;;;9.20;;
50393;SDS011;36308;46.312;25.288;2022-08-21T04:43:08;14.60;;;8.80;;
50393;SDS011;36308;46.312;25.288;2022-08-21T04:45:36;10.90;;;8.98;;
50393;SDS011;36308;46.312;25.288;2022-08-21T04:48:04;19.73;;;10.50;;
50393;SDS011;36308;46.312;25.288;2022-08-21T04:50:35;15.35;;;10.38;;
50393;SDS011;36308;46.312;25.288;2022-08-21T04:53:11;16.83;;;9.82;;
50393;SDS011;36308;46.312;25.288;2022-08-21T04:55:43;20.42;;;9.98;;
50393;SDS011;36308;46.312;25.288;2022-08-21T04:58:11;15.73;;;10.02;;
50393;SDS011;36308;46.312;25.288;2022-08-21T05:00:39;14.27;;;9.50;;
50393;SDS011;36308;46.312;25.288;2022-08-21T05:03:05;13.68;;;9.40;;
50393;SDS011;36308;46.312;25.288;2022-08-21T05:05:32;18.25;;;9.13;;
50393;SDS011;36308;46.312;25.288;2022-08-21T05:07:59;17.35;;;9.82;;
50393;SDS011;36308;46.312;25.288;2022-08-21T05:10:27;17.75;;;9.73;;
50393;SDS011;36308;46.312;25.288;2022-08-21T05:12:53;16.02;;;9.50;;
50393;SDS011;36308;46.312;25.288;2022-08-21T05:15:19;15.15;;;9.80;;
50393;SDS011;36308;46.312;25.288;2022-08-21T05:17:45;18.10;;;10.10;;
50393;SDS011;36308;46.312;25.288;2022-08-21T05:20:10;13.15;;;10.07;;
50393;SDS011;36308;46.312;25.288;2022-08-21T05:22:37;14.52;;;9.68;;
50393;SDS011;36308;46.312;25.288;2022-08-21T05:25:04;14.85;;;10.27;;
50393;SDS011;36308;46.312;25.288;2022-08-21T05:27:30;16.48;;;10.50;;
50393;SDS011;36308;46.312;25.288;2022-08-21T05:29:57;16.38;;;10.80;;
50393;SDS011;36308;46.312;25.288;2022-08-21T05:32:23;17.50;;;10.02;;
50393;SDS011;36308;46.312;25.288;2022-08-21T05:34:49;15.27;;;9.80;;
50393;SDS011;36308;46.312;25.288;2022-08-21T05:37:15;17.50;;;11.18;;
50393;SDS011;36308;46.312;25.288;2022-08-21T05:39:41;14.65;;;9.88;;
50393;SDS011;36308;46.312;25.288;2022-08-21T05:42:06;15.38;;;10.23;;
50393;SDS011;36308;46.312;25.288;2022-08-21T05:44:32;15.25;;;9.57;;
50393;SDS011;36308;46.312;25.288;2022-08-21T05:47:07;14.50;;;10.68;;
50393;SDS011;36308;46.312;25.288;2022-08-21T05:49:34;16.90;;;10.50;;
50393;SDS011;36308;46.312;25.288;2022-08-21T05:52:00;13.60;;;10.80;;
50393;SDS011;36308;46.312;25.288;2022-08-21T05:54:26;14.57;;;9.25;;
50393;SDS011;36308;46.312;25.288;2022-08-21T05:56:52;13.20;;;9.70;;
50393;SDS011;36308;46.312;25.288;2022-08-21T05:59:18;13.70;;;9.20;;
50393;SDS011;36308;46.312;25.288;2022-08-21T06:01:43;15.02;;;9.95;;
50393;SDS011;36308;46.312;25.288;2022-08-21T06:04:10;12.52;;;9.13;;
50393;SDS011;36308;46.312;25.288;2022-08-21T06:06:36;14.13;;;9.65;;
50393;SDS011;36308;46.312;25.288;2022-08-21T06:09:02;14.98;;;9.73;;
50393;SDS011;36308;46.312;25.288;2022-08-21T06:11:29;14.85;;;9.80;;
50393;SDS011;36308;46.312;25.288;2022-08-21T06:13:55;13.82;;;9.93;;
50393;SDS011;36308;46.312;25.288;2022-08-21T06:16:21;11.63;;;9.35;;
50393;SDS011;36308;46.312;25.288;2022-08-21T06:18:47;14.20;;;9.93;;
50393;SDS011;36308;46.312;25.288;2022-08-21T06:21:13;14.38;;;10.00;;
50393;SDS011;36308;46.312;25.288;2022-08-21T06:23:39;15.45;;;10.15;;
50393;SDS011;36308;46.312;25.288;2022-08-21T06:26:05;15.98;;;10.98;;
50393;SDS011;36308;46.312;25.288;2022-08-21T06:28:32;15.48;;;10.50;;
50393;SDS011;36308;46.312;25.288;2022-08-21T06:30:58;15.90;;;9.77;;
50393;SDS011;36308;46.312;25.288;2022-08-21T06:33:24;15.95;;;10.68;;
50393;SDS011;36308;46.312;25.288;2022-08-21T06:35:50;13.32;;;10.52;;
50393;SDS011;36308;46.312;25.288;2022-08-21T06:38:15;14.77;;;10.15;;
50393;SDS011;36308;46.312;25.288;2022-08-21T06:40:41;16.70;;;10.00;;
50393;SDS011;36308;46.312;25.288;2022-08-21T06:43:11;17.80;;;9.75;;
50393;SDS011;36308;46.312;25.288;2022-08-21T06:45:39;14.40;;;9.43;;
50393;SDS011;36308;46.312;25.288;2022-08-21T06:48:04;15.82;;;9.85;;
50393;SDS011;36308;46.312;25.288;2022-08-21T06:50:32;13.20;;;9.73;;
50393;SDS011;36308;46.312;25.288;2022-08-21T06:52:59;14.07;;;10.05;;
50393;SDS011;36308;46.312;25.288;2022-08-21T06:55:27;20.25;;;10.32;;
50393;SDS011;36308;46.312;25.288;2022-08-21T06:57:53;17.40;;;10.18;;
50393;SDS011;36308;46.312;25.288;2022-08-21T07:00:18;14.60;;;10.23;;
50393;SDS011;36308;46.312;25.288;2022-08-21T07:02:44;17.50;;;11.23;;
50393;SDS011;36308;46.312;25.288;2022-08-21T07:05:10;14.55;;;11.55;;
50393;SDS011;36308;46.312;25.288;2022-08-21T07:07:35;13.30;;;10.50;;
50393;SDS011;36308;46.312;25.288;2022-08-21T07:10:00;13.18;;;10.00;;
50393;SDS011;36308;46.312;25.288;2022-08-21T07:12:26;17.40;;;9.85;;
50393;SDS011;36308;46.312;25.288;2022-08-21T07:14:52;13.50;;;9.68;;
50393;SDS011;36308;46.312;25.288;2022-08-21T07:17:17;16.95;;;9.85;;
50393;SDS011;36308;46.312;25.288;2022-08-21T07:19:43;16.05;;;9.85;;
50393;SDS011;36308;46.312;25.288;2022-08-21T07:22:08;18.35;;;9.65;;
50393;SDS011;36308;46.312;25.288;2022-08-21T07:24:34;19.00;;;10.50;;
50393;SDS011;36308;46.312;25.288;2022-08-21T07:26:59;13.32;;;9.32;;
50393;SDS011;36308;46.312;25.288;2022-08-21T07:29:25;16.08;;;9.98;;
50393;SDS011;36308;46.312;25.288;2022-08-21T07:31:50;17.70;;;9.77;;
50393;SDS011;36308;46.312;25.288;2022-08-21T07:34:16;13.60;;;9.82;;
50393;SDS011;36308;46.312;25.288;2022-08-21T07:36:41;13.40;;;8.85;;
50393;SDS011;36308;46.312;25.288;2022-08-21T07:39:07;11.50;;;9.38;;
50393;SDS011;36308;46.312;25.288;2022-08-21T07:41:33;12.32;;;9.65;;
50393;SDS011;36308;46.312;25.288;2022-08-21T07:43:59;16.33;;;9.15;;
50393;SDS011;36308;46.312;25.288;2022-08-21T07:46:25;14.77;;;9.02;;
50393;SDS011;36308;46.312;25.288;2022-08-21T07:48:51;15.80;;;9.00;;
50393;SDS011;36308;46.312;25.288;2022-08-21T07:51:17;13.68;;;9.27;;
50393;SDS011;36308;46.312;25.288;2022-08-21T07:53:51;15.23;;;8.88;;
50393;SDS011;36308;46.312;25.288;2022-08-21T07:56:18;11.45;;;8.85;;
50393;SDS011;36308;46.312;25.288;2022-08-21T07:58:45;13.35;;;8.52;;
50393;SDS011;36308;46.312;25.288;2022-08-21T08:01:11;14.73;;;8.75;;
50393;SDS011;36308;46.312;25.288;2022-08-21T08:03:36;17.95;;;10.45;;
50393;SDS011;36308;46.312;25.288;2022-08-21T08:06:03;16.00;;;8.80;;
50393;SDS011;36308;46.312;25.288;2022-08-21T08:08:29;14.15;;;8.35;;
50393;SDS011;36308;46.312;25.288;2022-08-21T08:10:56;13.20;;;7.90;;
50393;SDS011;36308;46.312;25.288;2022-08-21T08:13:23;15.88;;;8.25;;
50393;SDS011;36308;46.312;25.288;2022-08-21T08:15:49;13.27;;;7.90;;
50393;SDS011;36308;46.312;25.288;2022-08-21T08:18:15;14.10;;;7.95;;
50393;SDS011;36308;46.312;25.288;2022-08-21T08:20:41;11.65;;;8.63;;
50393;SDS011;36308;46.312;25.288;2022-08-21T08:23:07;15.35;;;8.30;;
50393;SDS011;36308;46.312;25.288;2022-08-21T08:25:35;10.57;;;7.68;;
50393;SDS011;36308;46.312;25.288;2022-08-21T08:28:01;11.35;;;8.13;;
50393;SDS011;36308;46.312;25.288;2022-08-21T08:30:27;12.60;;;7.50;;
50393;SDS011;36308;46.312;25.288;2022-08-21T08:32:52;10.70;;;7.53;;
50393;SDS011;36308;46.312;25.288;2022-08-21T08:35:17;12.45;;;7.32;;
50393;SDS011;36308;46.312;25.288;2022-08-21T08:37:43;14.38;;;7.35;;
50393;SDS011;36308;46.312;25.288;2022-08-21T08:40:14;10.70;;;7.82;;
50393;SDS011;36308;46.312;25.288;2022-08-21T08:42:47;12.27;;;7.05;;
50393;SDS011;36308;46.312;25.288;2022-08-21T08:45:16;9.25;;;7.05;;
50393;SDS011;36308;46.312;25.288;2022-08-21T08:47:48;15.98;;;7.90;;
50393;SDS011;36308;46.312;25.288;2022-08-21T08:53:07;11.38;;;7.60;;
50393;SDS011;36308;46.312;25.288;2022-08-21T08:55:38;13.25;;;7.80;;
50393;SDS011;36308;46.312;25.288;2022-08-21T08:58:06;13.15;;;7.00;;
50393;SDS011;36308;46.312;25.288;2022-08-21T09:00:32;15.57;;;7.88;;
50393;SDS011;36308;46.312;25.288;2022-08-21T09:02:59;13.27;;;7.63;;
50393;SDS011;36308;46.312;25.288;2022-08-21T09:05:46;11.77;;;7.45;;
50393;SDS011;36308;46.312;25.288;2022-08-21T09:13:51;14.07;;;6.90;;
50393;SDS011;36308;46.312;25.288;2022-08-21T09:22:30;13.57;;;7.68;;
50393;SDS011;36308;46.312;25.288;2022-08-21T09:28:07;13.02;;;6.82;;
50393;SDS011;36308;46.312;25.288;2022-08-21T09:30:36;10.35;;;6.85;;
50393;SDS011;36308;46.312;25.288;2022-08-21T09:33:04;11.32;;;7.28;;
50393;SDS011;36308;46.312;25.288;2022-08-21T09:35:29;16.55;;;7.68;;
50393;SDS011;36308;46.312;25.288;2022-08-21T09:37:59;11.70;;;7.15;;
50393;SDS011;36308;46.312;25.288;2022-08-21T09:43:03;9.15;;;7.05;;
50393;SDS011;36308;46.312;25.288;2022-08-21T09:45:47;11.15;;;6.80;;
50393;SDS011;36308;46.312;25.288;2022-08-21T09:48:15;9.52;;;6.93;;
50393;SDS011;36308;46.312;25.288;2022-08-21T09:50:45;13.13;;;7.28;;
50393;SDS011;36308;46.312;25.288;2022-08-21T09:56:05;14.02;;;6.97;;
50393;SDS011;36308;46.312;25.288;2022-08-21T09:58:59;13.60;;;6.73;;
50393;SDS011;36308;46.312;25.288;2022-08-21T10:01:25;14.35;;;6.63;;
50393;SDS011;36308;46.312;25.288;2022-08-21T10:04:09;11.57;;;7.35;;
50393;SDS011;36308;46.312;25.288;2022-08-21T10:06:35;10.60;;;6.60;;
50393;SDS011;36308;46.312;25.288;2022-08-21T10:09:05;8.60;;;6.82;;
50393;SDS011;36308;46.312;25.288;2022-08-21T10:11:33;10.43;;;6.77;;
50393;SDS011;36308;46.312;25.288;2022-08-21T10:14:13;9.70;;;6.22;;
50393;SDS011;36308;46.312;25.288;2022-08-21T10:16:57;10.50;;;6.68;;
50393;SDS011;36308;46.312;25.288;2022-08-21T10:25:00;9.73;;;5.70;;
50393;SDS011;36308;46.312;25.288;2022-08-21T10:27:51;8.57;;;5.82;;
50393;SDS011;36308;46.312;25.288;2022-08-21T10:30:21;13.00;;;6.75;;
50393;SDS011;36308;46.312;25.288;2022-08-21T10:33:13;8.65;;;6.50;;
50393;SDS011;36308;46.312;25.288;2022-08-21T10:38:40;10.93;;;7.75;;
50393;SDS011;36308;46.312;25.288;2022-08-21T10:41:55;13.15;;;6.43;;
50393;SDS011;36308;46.312;25.288;2022-08-21T10:47:30;9.63;;;5.70;;
50393;SDS011;36308;46.312;25.288;2022-08-21T10:55:31;10.40;;;6.43;;
50393;SDS011;36308;46.312;25.288;2022-08-21T10:58:45;11.13;;;6.82;;
50393;SDS011;36308;46.312;25.288;2022-08-21T11:01:10;11.07;;;6.10;;
50393;SDS011;36308;46.312;25.288;2022-08-21T11:03:42;10.43;;;5.90;;
50393;SDS011;36308;46.312;25.288;2022-08-21T11:06:27;9.70;;;6.15;;
50393;SDS011;36308;46.312;25.288;2022-08-21T11:09:11;8.00;;;5.57;;
50393;SDS011;36308;46.312;25.288;2022-08-21T11:12:17;8.82;;;6.43;;
50393;SDS011;36308;46.312;25.288;2022-08-21T11:17:23;8.50;;;5.60;;
50393;SDS011;36308;46.312;25.288;2022-08-21T11:20:21;8.68;;;5.50;;
50393;SDS011;36308;46.312;25.288;2022-08-21T11:25:23;9.60;;;6.22;;
50393;SDS011;36308;46.312;25.288;2022-08-21T11:28:16;9.60;;;5.60;;
50393;SDS011;36308;46.312;25.288;2022-08-21T11:33:43;9.63;;;6.03;;
50393;SDS011;36308;46.312;25.288;2022-08-21T11:49:38;8.05;;;6.05;;
50393;SDS011;36308;46.312;25.288;2022-08-21T11:57:35;11.88;;;5.75;;
50393;SDS011;36308;46.312;25.288;2022-08-21T12:00:11;9.35;;;5.50;;
50393;SDS011;36308;46.312;25.288;2022-08-21T12:02:48;9.45;;;6.75;;
50393;SDS011;36308;46.312;25.288;2022-08-21T12:07:48;10.27;;;5.25;;
50393;SDS011;36308;46.312;25.288;2022-08-21T12:10:59;9.30;;;5.45;;
50393;SDS011;36308;46.312;25.288;2022-08-21T12:13:32;7.50;;;5.65;;
50393;SDS011;36308;46.312;25.288;2022-08-21T12:16:15;8.00;;;5.40;;
50393;SDS011;36308;46.312;25.288;2022-08-21T12:19:05;11.23;;;6.13;;
50393;SDS011;36308;46.312;25.288;2022-08-21T12:29:48;7.15;;;4.70;;
50393;SDS011;36308;46.312;25.288;2022-08-21T12:34:48;11.25;;;5.57;;
50393;SDS011;36308;46.312;25.288;2022-08-21T12:40:11;9.33;;;5.47;;
50393;SDS011;36308;46.312;25.288;2022-08-21T12:42:46;7.93;;;5.03;;
50393;SDS011;36308;46.312;25.288;2022-08-21T12:45:19;11.18;;;6.07;;
50393;SDS011;36308;46.312;25.288;2022-08-21T12:47:54;9.95;;;5.25;;
50393;SDS011;36308;46.312;25.288;2022-08-21T12:53:05;12.15;;;5.63;;
50393;SDS011;36308;46.312;25.288;2022-08-21T12:57:59;10.70;;;5.68;;
50393;SDS011;36308;46.312;25.288;2022-08-21T13:00:26;11.77;;;6.20;;
50393;SDS011;36308;46.312;25.288;2022-08-21T13:02:53;13.02;;;5.95;;
50393;SDS011;36308;46.312;25.288;2022-08-21T13:05:31;12.57;;;6.10;;
50393;SDS011;36308;46.312;25.288;2022-08-21T13:08:07;10.38;;;6.22;;
50393;SDS011;36308;46.312;25.288;2022-08-21T13:10:36;8.32;;;5.38;;
50393;SDS011;36308;46.312;25.288;2022-08-21T13:13:05;9.32;;;6.00;;
50393;SDS011;36308;46.312;25.288;2022-08-21T13:15:35;11.75;;;5.25;;
50393;SDS011;36308;46.312;25.288;2022-08-21T13:18:02;9.82;;;5.38;;
50393;SDS011;36308;46.312;25.288;2022-08-21T13:20:34;7.95;;;5.57;;
50393;SDS011;36308;46.312;25.288;2022-08-21T13:23:02;9.88;;;5.65;;
50393;SDS011;36308;46.312;25.288;2022-08-21T13:25:34;6.38;;;5.68;;
50393;SDS011;36308;46.312;25.288;2022-08-21T13:28:10;8.07;;;5.40;;
50393;SDS011;36308;46.312;25.288;2022-08-21T13:30:58;9.23;;;5.90;;
50393;SDS011;36308;46.312;25.288;2022-08-21T13:33:24;13.65;;;5.75;;
50393;SDS011;36308;46.312;25.288;2022-08-21T13:38:42;11.48;;;5.00;;
50393;SDS011;36308;46.312;25.288;2022-08-21T13:41:18;6.82;;;4.75;;
50393;SDS011;36308;46.312;25.288;2022-08-21T13:43:56;7.35;;;4.35;;
50393;SDS011;36308;46.312;25.288;2022-08-21T13:46:28;8.65;;;4.40;;
50393;SDS011;36308;46.312;25.288;2022-08-21T13:48:56;5.82;;;4.20;;
50393;SDS011;36308;46.312;25.288;2022-08-21T13:51:24;5.32;;;4.05;;
50393;SDS011;36308;46.312;25.288;2022-08-21T13:53:52;6.00;;;3.85;;
50393;SDS011;36308;46.312;25.288;2022-08-21T13:58:51;5.65;;;3.78;;
50393;SDS011;36308;46.312;25.288;2022-08-21T14:03:47;7.32;;;4.25;;
50393;SDS011;36308;46.312;25.288;2022-08-21T14:06:22;6.47;;;4.20;;
50393;SDS011;36308;46.312;25.288;2022-08-21T14:08:54;7.22;;;3.60;;
50393;SDS011;36308;46.312;25.288;2022-08-21T14:11:22;5.15;;;3.95;;
50393;SDS011;36308;46.312;25.288;2022-08-21T14:13:51;7.82;;;4.35;;
50393;SDS011;36308;46.312;25.288;2022-08-21T14:16:28;7.57;;;4.63;;
50393;SDS011;36308;46.312;25.288;2022-08-21T14:19:08;5.50;;;3.53;;
50393;SDS011;36308;46.312;25.288;2022-08-21T14:21:37;5.82;;;3.40;;
50393;SDS011;36308;46.312;25.288;2022-08-21T14:24:12;6.13;;;3.45;;
50393;SDS011;36308;46.312;25.288;2022-08-21T14:27:03;5.95;;;3.50;;
50393;SDS011;36308;46.312;25.288;2022-08-21T14:29:36;7.88;;;3.58;;
50393;SDS011;36308;46.312;25.288;2022-08-21T14:32:15;8.03;;;3.53;;
50393;SDS011;36308;46.312;25.288;2022-08-21T14:34:47;10.25;;;4.07;;
50393;SDS011;36308;46.312;25.288;2022-08-21T14:37:13;7.97;;;3.25;;
50393;SDS011;36308;46.312;25.288;2022-08-21T14:39:38;4.97;;;2.95;;
50393;SDS011;36308;46.312;25.288;2022-08-21T14:42:04;6.07;;;3.72;;
50393;SDS011;36308;46.312;25.288;2022-08-21T14:44:29;6.85;;;3.15;;
50393;SDS011;36308;46.312;25.288;2022-08-21T14:46:58;6.20;;;3.10;;
50393;SDS011;36308;46.312;25.288;2022-08-21T14:49:24;8.30;;;3.67;;
50393;SDS011;36308;46.312;25.288;2022-08-21T14:51:52;6.82;;;3.10;;
50393;SDS011;36308;46.312;25.288;2022-08-21T14:54:22;6.60;;;3.90;;
50393;SDS011;36308;46.312;25.288;2022-08-21T14:56:48;6.47;;;3.95;;
50393;SDS011;36308;46.312;25.288;2022-08-21T14:59:15;7.55;;;2.95;;
50393;SDS011;36308;46.312;25.288;2022-08-21T15:01:41;4.50;;;2.72;;
50393;SDS011;36308;46.312;25.288;2022-08-21T15:04:07;6.43;;;3.25;;
50393;SDS011;36308;46.312;25.288;2022-08-21T15:06:32;8.10;;;3.92;;
50393;SDS011;36308;46.312;25.288;2022-08-21T15:08:58;16.05;;;5.88;;
50393;SDS011;36308;46.312;25.288;2022-08-21T15:11:23;18.98;;;7.13;;
50393;SDS011;36308;46.312;25.288;2022-08-21T15:13:51;16.25;;;6.97;;
50393;SDS011;36308;46.312;25.288;2022-08-21T15:16:20;16.45;;;5.85;;
50393;SDS011;36308;46.312;25.288;2022-08-21T15:18:46;19.23;;;6.50;;
50393;SDS011;36308;46.312;25.288;2022-08-21T15:21:12;12.68;;;5.38;;
50393;SDS011;36308;46.312;25.288;2022-08-21T15:23:37;10.70;;;5.00;;
50393;SDS011;36308;46.312;25.288;2022-08-21T15:26:03;9.43;;;4.80;;
50393;SDS011;36308;46.312;25.288;2022-08-21T15:28:29;11.68;;;4.70;;
50393;SDS011;36308;46.312;25.288;2022-08-21T15:30:54;9.95;;;4.70;;
50393;SDS011;36308;46.312;25.288;2022-08-21T15:33:20;9.93;;;5.35;;
50393;SDS011;36308;46.312;25.288;2022-08-21T15:35:46;15.15;;;8.35;;
50393;SDS011;36308;46.312;25.288;2022-08-21T15:38:13;14.63;;;8.75;;
50393;SDS011;36308;46.312;25.288;2022-08-21T15:40:39;12.45;;;5.55;;
50393;SDS011;36308;46.312;25.288;2022-08-21T15:43:06;10.15;;;5.32;;
50393;SDS011;36308;46.312;25.288;2022-08-21T15:45:41;7.85;;;5.05;;
50393;SDS011;36308;46.312;25.288;2022-08-21T15:48:12;12.85;;;6.55;;
50393;SDS011;36308;46.312;25.288;2022-08-21T15:50:37;10.68;;;5.32;;
50393;SDS011;36308;46.312;25.288;2022-08-21T15:53:02;10.25;;;5.07;;
50393;SDS011;36308;46.312;25.288;2022-08-21T15:55:28;8.80;;;4.50;;
50393;SDS011;36308;46.312;25.288;2022-08-21T15:57:53;8.85;;;5.15;;
50393;SDS011;36308;46.312;25.288;2022-08-21T16:00:21;9.85;;;5.05;;
50393;SDS011;36308;46.312;25.288;2022-08-21T16:02:49;7.13;;;5.05;;
50393;SDS011;36308;46.312;25.288;2022-08-21T16:05:17;10.43;;;5.10;;
50393;SDS011;36308;46.312;25.288;2022-08-21T16:07:44;10.82;;;5.72;;
50393;SDS011;36308;46.312;25.288;2022-08-21T16:10:12;7.90;;;5.47;;
50393;SDS011;36308;46.312;25.288;2022-08-21T16:12:41;12.52;;;7.70;;